createdAt,value
2023-03-23T15:58:51.396Z,99941.47
2023-03-23T16:02:04.275Z,99947.25
2023-03-23T16:05:16.939Z,99938.16
2023-03-23T16:08:29.315Z,99946.56
2023-03-23T16:11:42.275Z,99954.47
2023-03-23T16:14:54.613Z,99948.13
2023-03-23T16:18:07.332Z,99945.84
2023-03-23T16:21:19.681Z,99941.19
2023-03-23T16:24:32.549Z,99951.53
2023-03-23T16:27:51.285Z,99952.06
2023-03-23T16:31:05.004Z,99954.94
2023-03-23T16:34:17.401Z,99958.09
2023-03-23T16:37:33.377Z,99954.16
2023-03-23T16:40:46.715Z,99950.16
2023-03-23T16:43:59.350Z,99951.34
2023-03-23T16:47:11.925Z,99946.44
2023-03-23T16:50:24.551Z,99941.28
2023-03-23T16:53:37.726Z,99945.06
2023-03-23T16:56:50.499Z,99946.00
2023-03-23T17:00:06.036Z,99949.81
2023-03-23T17:03:19.472Z,99961.28
2023-03-23T17:06:31.941Z,99964.56
2023-03-23T17:09:44.557Z,99967.53
2023-03-23T17:12:56.897Z,99968.69
2023-03-23T17:16:09.661Z,99966.19
2023-03-23T17:19:22.062Z,99969.75
2023-03-23T17:22:34.686Z,99966.41
2023-03-23T17:25:47.334Z,99973.16
2023-03-23T17:29:01.126Z,99973.56
2023-03-23T17:32:13.840Z,99973.84
2023-03-23T17:35:26.425Z,99969.87
2023-03-23T17:38:38.775Z,99980.69
2023-03-23T17:41:51.418Z,99978.31
2023-03-23T17:45:04.945Z,99985.28
2023-03-23T17:48:17.603Z,99984.00
2023-03-23T17:51:29.940Z,99985.34
2023-03-23T17:54:42.544Z,99985.28
2023-03-23T17:57:54.880Z,99991.69
2023-03-23T18:01:07.609Z,99993.31
2023-03-23T18:04:20.314Z,99996.53
2023-03-23T18:07:32.657Z,99996.97
2023-03-23T18:10:45.288Z,100000.75
2023-03-23T18:13:57.712Z,100003.37
2023-03-23T18:17:10.401Z,100003.81
2023-03-23T18:20:22.940Z,100007.09
2023-03-23T18:23:43.084Z,100007.72
2023-03-23T18:27:02.250Z,100013.75
2023-03-23T18:30:14.926Z,100016.75
2023-03-23T18:33:27.291Z,100020.22
2023-03-23T18:36:39.891Z,100021.09
2023-03-23T18:39:53.636Z,100015.88
2023-03-23T18:43:06.575Z,100020.69
2023-03-23T18:46:18.986Z,100024.28
2023-03-23T18:49:33.636Z,100025.06
2023-03-23T18:52:46.183Z,100026.87
2023-03-23T18:56:23.989Z,100023.47
2023-03-23T18:59:37.066Z,100029.78
2023-03-23T19:02:52.061Z,100022.44
2023-03-23T19:06:06.076Z,100038.88
2023-03-23T19:09:19.199Z,100027.97
2023-03-23T19:12:32.105Z,100033.66
2023-03-23T19:15:44.872Z,100021.84
2023-03-23T19:18:57.345Z,100027.59
2023-03-23T19:22:10.005Z,100024.31
2023-03-23T19:25:22.615Z,100015.62
2023-03-23T19:31:51.088Z,100034.53
2023-03-23T19:35:04.119Z,100039.81
2023-03-23T19:38:17.744Z,100040.56
2023-03-23T19:41:31.158Z,100032.81
2023-03-23T19:44:43.550Z,100031.62
2023-03-23T19:47:56.333Z,100027.09
2023-03-23T19:51:09.353Z,100029.16
2023-03-23T19:54:22.489Z,100032.00
2023-03-23T19:57:35.251Z,100025.19
2023-03-23T20:00:48.635Z,100028.03
2023-03-23T20:04:04.944Z,100035.09
2023-03-23T20:07:17.560Z,100031.69
2023-03-23T20:10:30.557Z,100028.13
2023-03-23T20:13:43.313Z,100037.78
2023-03-23T20:16:56.108Z,100032.38
2023-03-23T20:20:10.443Z,100035.00
2023-03-23T20:23:23.387Z,100044.88
2023-03-23T20:26:38.888Z,100043.25
2023-03-23T20:29:53.551Z,100052.69
2023-03-23T20:33:05.953Z,100056.12
2023-03-23T20:36:20.029Z,100050.50
2023-03-23T20:39:32.960Z,100057.37
2023-03-23T20:42:45.601Z,100059.00
2023-03-23T20:46:00.993Z,100051.75
2023-03-23T20:49:14.058Z,100054.56
2023-03-23T20:52:26.414Z,100053.78
2023-03-23T20:55:39.020Z,100053.78
2023-03-23T20:58:51.396Z,100046.16
2023-03-23T21:02:05.483Z,100039.69
2023-03-23T21:05:17.791Z,100034.91
2023-03-23T21:08:30.762Z,100042.34
2023-03-23T21:11:43.506Z,100030.06
2023-03-23T21:14:56.156Z,100038.53
2023-03-23T21:18:08.827Z,100037.91
2023-03-23T21:21:21.825Z,100027.44
2023-03-23T21:24:38.593Z,100020.78
2023-03-23T21:27:52.215Z,100019.63
2023-03-23T21:31:06.026Z,100022.84
2023-03-23T21:34:18.708Z,100027.28
2023-03-23T21:37:31.046Z,100028.06
2023-03-23T21:40:43.915Z,100031.91
2023-03-23T21:43:56.718Z,100027.31
2023-03-23T21:47:10.844Z,100030.31
2023-03-23T21:50:24.334Z,100026.50
2023-03-23T21:53:37.146Z,100024.91
2023-03-23T21:56:49.724Z,100029.94
2023-03-23T22:00:02.417Z,100030.09
2023-03-23T22:03:19.176Z,100024.91
2023-03-23T22:06:34.391Z,100027.72
2023-03-23T22:09:46.779Z,100032.53
2023-03-23T22:12:59.476Z,100036.56
2023-03-23T22:16:17.756Z,100027.31
2023-03-23T22:19:31.342Z,100021.66
2023-03-23T22:22:43.766Z,100028.06
2023-03-23T22:25:57.118Z,100033.28
2023-03-23T22:29:11.317Z,100028.84
2023-03-23T22:32:24.293Z,100029.38
2023-03-23T22:35:36.789Z,100034.59
2023-03-23T22:38:49.701Z,100027.16
2023-03-23T22:42:02.112Z,100031.97
2023-03-23T22:45:14.833Z,100028.38
2023-03-23T22:48:27.517Z,100025.53
2023-03-23T22:51:40.680Z,100020.50
2023-03-23T22:54:53.543Z,100029.12
2023-03-23T22:58:06.254Z,100032.69
2023-03-23T23:01:19.887Z,100034.50
2023-03-23T23:04:33.238Z,100033.69
2023-03-23T23:07:45.686Z,100039.66
2023-03-23T23:11:01.272Z,100049.50
2023-03-23T23:14:13.686Z,100048.28
2023-03-23T23:17:26.699Z,100051.47
2023-03-23T23:20:39.455Z,100065.50
2023-03-23T23:23:52.557Z,100068.44
2023-03-23T23:27:04.974Z,100066.44
2023-03-23T23:30:17.802Z,100065.88
2023-03-23T23:33:30.264Z,100068.28
2023-03-23T23:36:43.019Z,100060.06
2023-03-23T23:39:55.693Z,100060.25
2023-03-23T23:43:09.748Z,100063.47
2023-03-23T23:46:22.489Z,100062.59
2023-03-23T23:49:35.395Z,100057.81
2023-03-23T23:52:50.145Z,100065.75
2023-03-23T23:56:03.624Z,100056.09
2023-03-23T23:59:16.312Z,100063.25
